Terminal Aerodrome Forecast
Issued by NWS Cleveland, OH

Home | Current Version | Previous Version | Graphics & Text | Print | Product List | Glossary On
Versions: 1 2 3 4 5 6 7 8 9 10 11 12 13 14 15 16 17 18 19 20 21 22
000
FTUS41 KCLE 180500
TAFERI
TAF
KERI 180525Z 1806/1906 24012G20KT P6SM -RA OVC020
      TEMPO 1806/1810 5SM -RA BR SCT020 OVC035
     FM181000 25012G16KT P6SM -RA OVC015
      TEMPO 1810/1814 5SM -RA BR
     FM181400 30014G22KT P6SM VCSH OVC025
     FM190000 32012G20KT P6SM OVC025
     FM190500 33012KT P6SM OVC030=

USA.gov is the U.S. government's official web portal to all federal, state and local government web resources and services.